sensor_id;sensor_type;location;lat;lon;timestamp;pressure;altitude;pressure_sealevel;temperature;humidity
11440;BME280;5776;51.814;4.510;2022-08-30T00:00:09;102210.78;;;18.00;85.81
11440;BME280;5776;51.814;4.510;2022-08-30T00:02:54;102202.06;;;17.98;85.87
11440;BME280;5776;51.814;4.510;2022-08-30T00:05:22;102194.09;;;17.97;85.75
11440;BME280;5776;51.814;4.510;2022-08-30T00:07:48;102205.09;;;17.97;85.69
11440;BME280;5776;51.814;4.510;2022-08-30T00:10:14;102197.16;;;17.95;85.64
11440;BME280;5776;51.814;4.510;2022-08-30T00:12:41;102193.59;;;17.95;85.82
11440;BME280;5776;51.814;4.510;2022-08-30T00:15:09;102197.94;;;17.96;85.98
11440;BME280;5776;51.814;4.510;2022-08-30T00:17:36;102188.38;;;17.93;85.83
11440;BME280;5776;51.814;4.510;2022-08-30T00:20:04;102193.41;;;17.91;86.11
11440;BME280;5776;51.814;4.510;2022-08-30T00:22:30;102195.63;;;17.89;85.77
11440;BME280;5776;51.814;4.510;2022-08-30T00:24:58;102195.31;;;17.90;86.03
11440;BME280;5776;51.814;4.510;2022-08-30T00:27:26;102201.94;;;17.89;85.93
11440;BME280;5776;51.814;4.510;2022-08-30T00:29:53;102198.16;;;17.85;86.51
11440;BME280;5776;51.814;4.510;2022-08-30T00:32:19;102195.91;;;17.87;85.97
11440;BME280;5776;51.814;4.510;2022-08-30T00:34:47;102199.81;;;17.86;86.19
11440;BME280;5776;51.814;4.510;2022-08-30T00:37:13;102188.28;;;17.84;86.01
11440;BME280;5776;51.814;4.510;2022-08-30T00:39:40;102190.84;;;17.81;86.27
11440;BME280;5776;51.814;4.510;2022-08-30T00:42:07;102190.00;;;17.80;86.95
11440;BME280;5776;51.814;4.510;2022-08-30T00:44:33;102195.50;;;17.80;86.66
11440;BME280;5776;51.814;4.510;2022-08-30T00:46:59;102197.75;;;17.78;86.73
11440;BME280;5776;51.814;4.510;2022-08-30T00:49:25;102199.16;;;17.76;86.42
11440;BME280;5776;51.814;4.510;2022-08-30T00:51:52;102199.97;;;17.76;86.98
11440;BME280;5776;51.814;4.510;2022-08-30T00:54:18;102200.78;;;17.77;86.54
11440;BME280;5776;51.814;4.510;2022-08-30T00:56:45;102197.75;;;17.78;86.94
11440;BME280;5776;51.814;4.510;2022-08-30T00:59:12;102206.78;;;17.79;86.49
11440;BME280;5776;51.814;4.510;2022-08-30T01:01:39;102200.25;;;17.75;86.46
11440;BME280;5776;51.814;4.510;2022-08-30T01:04:07;102196.41;;;17.76;86.53
11440;BME280;5776;51.814;4.510;2022-08-30T01:06:34;102201.38;;;17.74;86.19
11440;BME280;5776;51.814;4.510;2022-08-30T01:09:02;102195.09;;;17.73;85.99
11440;BME280;5776;51.814;4.510;2022-08-30T01:11:31;102195.91;;;17.74;86.52
11440;BME280;5776;51.814;4.510;2022-08-30T01:13:58;102196.19;;;17.72;86.89
11440;BME280;5776;51.814;4.510;2022-08-30T01:16:24;102200.59;;;17.73;86.60
11440;BME280;5776;51.814;4.510;2022-08-30T01:18:52;102206.66;;;17.70;86.53
11440;BME280;5776;51.814;4.510;2022-08-30T01:21:23;102212.16;;;17.70;85.66
11440;BME280;5776;51.814;4.510;2022-08-30T01:23:54;102205.03;;;17.69;85.95
11440;BME280;5776;51.814;4.510;2022-08-30T01:26:22;102209.22;;;17.66;86.29
11440;BME280;5776;51.814;4.510;2022-08-30T01:28:53;102198.50;;;17.65;86.45
11440;BME280;5776;51.814;4.510;2022-08-30T01:31:21;102214.38;;;17.68;86.08
11440;BME280;5776;51.814;4.510;2022-08-30T01:33:47;102208.69;;;17.64;87.03
11440;BME280;5776;51.814;4.510;2022-08-30T01:36:14;102206.03;;;17.59;86.79
11440;BME280;5776;51.814;4.510;2022-08-30T01:38:52;102201.34;;;17.60;86.58
11440;BME280;5776;51.814;4.510;2022-08-30T01:41:22;102202.16;;;17.60;86.94
11440;BME280;5776;51.814;4.510;2022-08-30T01:43:50;102201.34;;;17.60;86.49
11440;BME280;5776;51.814;4.510;2022-08-30T01:46:18;102205.22;;;17.59;86.44
11440;BME280;5776;51.814;4.510;2022-08-30T01:48:45;102197.50;;;17.61;86.26
11440;BME280;5776;51.814;4.510;2022-08-30T01:51:12;102198.09;;;17.58;86.41
11440;BME280;5776;51.814;4.510;2022-08-30T01:53:40;102196.47;;;17.57;87.27
11440;BME280;5776;51.814;4.510;2022-08-30T01:56:08;102193.22;;;17.55;86.84
11440;BME280;5776;51.814;4.510;2022-08-30T01:58:36;102195.97;;;17.55;86.77
11440;BME280;5776;51.814;4.510;2022-08-30T02:01:07;102193.53;;;17.53;86.51
11440;BME280;5776;51.814;4.510;2022-08-30T02:03:34;102194.34;;;17.54;86.76
11440;BME280;5776;51.814;4.510;2022-08-30T02:06:14;102202.88;;;17.52;87.14
11440;BME280;5776;51.814;4.510;2022-08-30T02:08:41;102199.31;;;17.52;86.51
11440;BME280;5776;51.814;4.510;2022-08-30T02:11:07;102204.00;;;17.51;86.57
11440;BME280;5776;51.814;4.510;2022-08-30T02:13:34;102199.31;;;17.52;86.51
11440;BME280;5776;51.814;4.510;2022-08-30T02:16:03;102198.19;;;17.53;86.38
11440;BME280;5776;51.814;4.510;2022-08-30T02:18:32;102196.84;;;17.50;87.12
11440;BME280;5776;51.814;4.510;2022-08-30T02:20:58;102198.78;;;17.49;86.87
11440;BME280;5776;51.814;4.510;2022-08-30T02:23:24;102194.44;;;17.48;86.58
11440;BME280;5776;51.814;4.510;2022-08-30T02:25:50;102195.53;;;17.47;87.54
11440;BME280;5776;51.814;4.510;2022-08-30T02:28:16;102191.69;;;17.48;87.24
11440;BME280;5776;51.814;4.510;2022-08-30T02:30:45;102195.25;;;17.49;85.89
11440;BME280;5776;51.814;4.510;2022-08-30T02:33:11;102193.91;;;17.46;86.69
11440;BME280;5776;51.814;4.510;2022-08-30T02:35:37;102198.00;;;17.49;86.42
11440;BME280;5776;51.814;4.510;2022-08-30T02:38:04;102198.28;;;17.47;86.88
11440;BME280;5776;51.814;4.510;2022-08-30T02:40:30;102199.13;;;17.48;86.73
11440;BME280;5776;51.814;4.510;2022-08-30T02:42:56;102188.72;;;17.45;86.94
11440;BME280;5776;51.814;4.510;2022-08-30T02:45:23;102190.03;;;17.47;86.98
11440;BME280;5776;51.814;4.510;2022-08-30T02:47:49;102181.78;;;17.47;87.19
11440;BME280;5776;51.814;4.510;2022-08-30T02:50:15;102186.47;;;17.47;86.96
11440;BME280;5776;51.814;4.510;2022-08-30T02:52:41;102190.03;;;17.47;87.04
11440;BME280;5776;51.814;4.510;2022-08-30T02:55:07;102178.53;;;17.45;87.63
11440;BME280;5776;51.814;4.510;2022-08-30T02:57:34;102180.19;;;17.46;86.85
11440;BME280;5776;51.814;4.510;2022-08-30T03:00:00;102183.22;;;17.45;87.81
11440;BME280;5776;51.814;4.510;2022-08-30T03:02:27;102176.41;;;17.42;87.81
11440;BME280;5776;51.814;4.510;2022-08-30T03:04:54;102164.31;;;17.43;86.94
11440;BME280;5776;51.814;4.510;2022-08-30T03:07:22;102164.09;;;17.40;87.92
11440;BME280;5776;51.814;4.510;2022-08-30T03:09:48;102170.72;;;17.39;87.90
11440;BME280;5776;51.814;4.510;2022-08-30T03:12:14;102168.25;;;17.37;87.50
11440;BME280;5776;51.814;4.510;2022-08-30T03:14:40;102173.97;;;17.41;87.52
11440;BME280;5776;51.814;4.510;2022-08-30T03:17:07;102168.16;;;17.42;87.28
11440;BME280;5776;51.814;4.510;2022-08-30T03:19:34;102164.09;;;17.40;87.73
11440;BME280;5776;51.814;4.510;2022-08-30T03:22:04;102162.47;;;17.39;86.92
11440;BME280;5776;51.814;4.510;2022-08-30T03:24:31;102163.06;;;17.36;88.06
11440;BME280;5776;51.814;4.510;2022-08-30T03:26:57;102168.56;;;17.36;88.10
11440;BME280;5776;51.814;4.510;2022-08-30T03:29:23;102170.78;;;17.34;87.73
11440;BME280;5776;51.814;4.510;2022-08-30T03:31:49;102160.63;;;17.34;87.60
11440;BME280;5776;51.814;4.510;2022-08-30T03:34:15;102159.00;;;17.33;86.97
11440;BME280;5776;51.814;4.510;2022-08-30T03:36:41;102164.50;;;17.33;87.73
11440;BME280;5776;51.814;4.510;2022-08-30T03:39:08;102153.00;;;17.31;87.19
11440;BME280;5776;51.814;4.510;2022-08-30T03:41:34;102154.09;;;17.30;87.29
11440;BME280;5776;51.814;4.510;2022-08-30T03:44:01;102158.50;;;17.31;87.65
11440;BME280;5776;51.814;4.510;2022-08-30T03:46:27;102151.66;;;17.28;87.72
11440;BME280;5776;51.814;4.510;2022-08-30T03:48:53;102152.47;;;17.29;87.08
11440;BME280;5776;51.814;4.510;2022-08-30T03:51:24;102153.09;;;17.26;87.62
11440;BME280;5776;51.814;4.510;2022-08-30T03:53:50;102150.63;;;17.24;87.95
11440;BME280;5776;51.814;4.510;2022-08-30T03:56:17;102161.63;;;17.24;88.38
11440;BME280;5776;51.814;4.510;2022-08-30T03:58:43;102160.81;;;17.24;87.97
11440;BME280;5776;51.814;4.510;2022-08-30T04:01:10;102157.53;;;17.22;87.47
11440;BME280;5776;51.814;4.510;2022-08-30T04:03:36;102155.59;;;17.22;88.12
11440;BME280;5776;51.814;4.510;2022-08-30T04:06:03;102160.00;;;17.23;87.49
11440;BME280;5776;51.814;4.510;2022-08-30T04:08:29;102155.59;;;17.22;87.34
11440;BME280;5776;51.814;4.510;2022-08-30T04:10:55;102155.91;;;17.21;86.90
11440;BME280;5776;51.814;4.510;2022-08-30T04:13:22;102151.25;;;17.21;87.42
11440;BME280;5776;51.814;4.510;2022-08-30T04:15:49;102154.28;;;17.20;87.14
11440;BME280;5776;51.814;4.510;2022-08-30T04:18:15;102152.44;;;17.15;88.21
11440;BME280;5776;51.814;4.510;2022-08-30T04:20:41;102156.31;;;17.14;87.55
11440;BME280;5776;51.814;4.510;2022-08-30T04:23:08;102153.25;;;17.16;88.42
11440;BME280;5776;51.814;4.510;2022-08-30T04:25:36;102157.63;;;17.17;87.40
11440;BME280;5776;51.814;4.510;2022-08-30T04:28:03;102157.09;;;17.15;87.70
11440;BME280;5776;51.814;4.510;2022-08-30T04:30:30;102148.06;;;17.14;87.60
11440;BME280;5776;51.814;4.510;2022-08-30T04:32:57;102163.22;;;17.12;87.80
11440;BME280;5776;51.814;4.510;2022-08-30T04:35:23;102166.47;;;17.14;87.12
11440;BME280;5776;51.814;4.510;2022-08-30T04:37:49;102164.00;;;17.12;88.07
11440;BME280;5776;51.814;4.510;2022-08-30T04:40:15;102166.47;;;17.14;88.64
11440;BME280;5776;51.814;4.510;2022-08-30T04:42:41;102164.81;;;17.13;88.16
11440;BME280;5776;51.814;4.510;2022-08-30T04:45:13;102175.94;;;17.21;87.22
11440;BME280;5776;51.814;4.510;2022-08-30T04:47:41;102172.69;;;17.19;87.01
11440;BME280;5776;51.814;4.510;2022-08-30T04:50:08;102174.31;;;17.20;87.57
11440;BME280;5776;51.814;4.510;2022-08-30T04:52:35;102172.91;;;17.23;86.06
11440;BME280;5776;51.814;4.510;2022-08-30T04:55:01;102174.00;;;17.22;86.59
11440;BME280;5776;51.814;4.510;2022-08-30T04:57:28;102173.50;;;17.20;87.31
11440;BME280;5776;51.814;4.510;2022-08-30T04:59:54;102176.25;;;17.20;86.86
11440;BME280;5776;51.814;4.510;2022-08-30T05:02:21;102178.47;;;17.18;87.41
11440;BME280;5776;51.814;4.510;2022-08-30T05:04:47;102174.63;;;17.19;87.27
11440;BME280;5776;51.814;4.510;2022-08-30T05:07:31;102182.34;;;17.17;85.77
11440;BME280;5776;51.814;4.510;2022-08-30T05:09:58;102185.88;;;17.17;86.56
11440;BME280;5776;51.814;4.510;2022-08-30T05:12:24;102191.09;;;17.19;87.03
11440;BME280;5776;51.814;4.510;2022-08-30T05:14:50;102193.84;;;17.19;87.52
11440;BME280;5776;51.814;4.510;2022-08-30T05:17:16;102193.31;;;17.17;87.31
11440;BME280;5776;51.814;4.510;2022-08-30T05:19:42;102192.78;;;17.15;87.47
11440;BME280;5776;51.814;4.510;2022-08-30T05:22:08;102196.66;;;17.14;87.20
11440;BME280;5776;51.814;4.510;2022-08-30T05:24:34;102199.41;;;17.14;88.37
11440;BME280;5776;51.814;4.510;2022-08-30T05:27:01;102197.28;;;17.11;88.11
11440;BME280;5776;51.814;4.510;2022-08-30T05:29:27;102201.13;;;17.10;88.43
11440;BME280;5776;51.814;4.510;2022-08-30T05:31:53;102200.31;;;17.09;87.84
11440;BME280;5776;51.814;4.510;2022-08-30T05:34:19;102198.38;;;17.10;87.92
11440;BME280;5776;51.814;4.510;2022-08-30T05:36:45;102202.25;;;17.09;87.93
11440;BME280;5776;51.814;4.510;2022-08-30T05:39:11;102206.63;;;16.91;89.70
11440;BME280;5776;51.814;4.510;2022-08-30T05:41:38;102204.44;;;16.69;90.73
11440;BME280;5776;51.814;4.510;2022-08-30T05:44:05;102207.88;;;16.60;91.59
11440;BME280;5776;51.814;4.510;2022-08-30T05:46:32;102207.28;;;16.63;91.43
11440;BME280;5776;51.814;4.510;2022-08-30T05:49:01;102207.88;;;16.60;91.57
11440;BME280;5776;51.814;4.510;2022-08-30T05:51:28;102212.22;;;16.61;91.90
11440;BME280;5776;51.814;4.510;2022-08-30T05:53:55;102208.88;;;16.64;92.47
11440;BME280;5776;51.814;4.510;2022-08-30T05:56:33;102211.94;;;16.63;91.94
11440;BME280;5776;51.814;4.510;2022-08-30T05:59:01;102213.84;;;16.62;92.74
11440;BME280;5776;51.814;4.510;2022-08-30T06:01:36;102214.69;;;16.63;92.09
11440;BME280;5776;51.814;4.510;2022-08-30T06:04:03;102216.59;;;16.62;91.42
11440;BME280;5776;51.814;4.510;2022-08-30T06:06:32;102225.13;;;16.61;92.55
11440;BME280;5776;51.814;4.510;2022-08-30T06:08:58;102222.69;;;16.59;93.25
11440;BME280;5776;51.814;4.510;2022-08-30T06:11:25;102210.63;;;16.60;92.92
11440;BME280;5776;51.814;4.510;2022-08-30T06:13:52;102215.25;;;16.60;93.03
11440;BME280;5776;51.814;4.510;2022-08-30T06:16:20;102207.63;;;16.57;92.83
11440;BME280;5776;51.814;4.510;2022-08-30T06:18:47;102214.75;;;16.58;92.48
11440;BME280;5776;51.814;4.510;2022-08-30T06:21:17;102214.97;;;16.61;92.29
11440;BME280;5776;51.814;4.510;2022-08-30T06:23:44;102214.09;;;16.66;92.84
11440;BME280;5776;51.814;4.510;2022-08-30T06:26:10;102214.31;;;16.70;91.68
11440;BME280;5776;51.814;4.510;2022-08-30T06:28:36;102210.16;;;16.72;92.46
11440;BME280;5776;51.814;4.510;2022-08-30T06:31:07;102215.06;;;16.75;91.88
11440;BME280;5776;51.814;4.510;2022-08-30T06:33:35;102212.56;;;16.79;92.26
11440;BME280;5776;51.814;4.510;2022-08-30T06:36:07;102214.72;;;16.82;92.08
11440;BME280;5776;51.814;4.510;2022-08-30T06:38:34;102217.69;;;16.86;92.10
11440;BME280;5776;51.814;4.510;2022-08-30T06:41:11;102215.16;;;16.89;90.98
11440;BME280;5776;51.814;4.510;2022-08-30T06:43:37;102216.50;;;16.92;90.93
11440;BME280;5776;51.814;4.510;2022-08-30T06:46:05;102221.09;;;16.96;90.79
11440;BME280;5776;51.814;4.510;2022-08-30T06:48:32;102215.31;;;16.98;91.65
11440;BME280;5776;51.814;4.510;2022-08-30T06:50:58;102215.00;;;16.99;90.79
11440;BME280;5776;51.814;4.510;2022-08-30T06:53:24;102217.13;;;17.02;91.11
11440;BME280;5776;51.814;4.510;2022-08-30T06:55:55;102206.06;;;17.08;90.13
11440;BME280;5776;51.814;4.510;2022-08-30T06:58:22;102210.16;;;17.10;89.98
11440;BME280;5776;51.814;4.510;2022-08-30T07:00:48;102207.13;;;17.12;90.41
11440;BME280;5776;51.814;4.510;2022-08-30T07:03:14;102202.97;;;17.14;89.31
11440;BME280;5776;51.814;4.510;2022-08-30T07:05:40;102199.09;;;17.15;88.88
11440;BME280;5776;51.814;4.510;2022-08-30T07:08:06;102210.81;;;17.21;88.63
11440;BME280;5776;51.814;4.510;2022-08-30T07:10:32;102203.13;;;17.23;88.67
11440;BME280;5776;51.814;4.510;2022-08-30T07:12:58;102208.81;;;17.26;88.46
11440;BME280;5776;51.814;4.510;2022-08-30T07:15:24;102216.75;;;17.28;87.56
11440;BME280;5776;51.814;4.510;2022-08-30T07:17:49;102221.13;;;17.29;87.88
11440;BME280;5776;51.814;4.510;2022-08-30T07:20:36;102224.91;;;17.33;86.85
11440;BME280;5776;51.814;4.510;2022-08-30T07:23:02;102217.16;;;17.35;88.16
11440;BME280;5776;51.814;4.510;2022-08-30T07:25:29;102215.53;;;17.34;87.34
11440;BME280;5776;51.814;4.510;2022-08-30T07:27:55;102217.38;;;17.39;87.06
11440;BME280;5776;51.814;4.510;2022-08-30T07:30:21;102226.63;;;17.43;86.08
11440;BME280;5776;51.814;4.510;2022-08-30T07:32:47;102220.56;;;17.46;86.64
11440;BME280;5776;51.814;4.510;2022-08-30T07:35:14;102221.28;;;17.52;86.07
11440;BME280;5776;51.814;4.510;2022-08-30T07:37:40;102221.47;;;17.55;86.27
11440;BME280;5776;51.814;4.510;2022-08-30T07:40:07;102222.31;;;17.56;86.51
11440;BME280;5776;51.814;4.510;2022-08-30T07:42:33;102231.06;;;17.58;86.45
11440;BME280;5776;51.814;4.510;2022-08-30T07:44:59;102219.47;;;17.61;86.19
11440;BME280;5776;51.814;4.510;2022-08-30T07:47:27;102224.28;;;17.69;86.86
11440;BME280;5776;51.814;4.510;2022-08-30T07:49:53;102224.19;;;17.74;86.48
11440;BME280;5776;51.814;4.510;2022-08-30T07:52:19;102232.41;;;17.74;87.21
11440;BME280;5776;51.814;4.510;2022-08-30T07:54:45;102228.47;;;17.80;87.22
11440;BME280;5776;51.814;4.510;2022-08-30T07:57:11;102236.94;;;17.84;86.25
11440;BME280;5776;51.814;4.510;2022-08-30T07:59:37;102240.69;;;17.88;86.61
11440;BME280;5776;51.814;4.510;2022-08-30T08:02:03;102224.72;;;17.90;86.66
11440;BME280;5776;51.814;4.510;2022-08-30T08:04:28;102233.78;;;17.90;86.09
11440;BME280;5776;51.814;4.510;2022-08-30T08:06:54;102234.63;;;17.91;85.39
11440;BME280;5776;51.814;4.510;2022-08-30T08:09:20;102233.19;;;17.94;85.56
11440;BME280;5776;51.814;4.510;2022-08-30T08:11:46;102238.69;;;17.94;85.28
11440;BME280;5776;51.814;4.510;2022-08-30T08:14:12;102236.44;;;17.96;84.09
11440;BME280;5776;51.814;4.510;2022-08-30T08:16:38;102232.59;;;17.97;84.64
11440;BME280;5776;51.814;4.510;2022-08-30T08:19:05;102241.63;;;17.97;83.88
11440;BME280;5776;51.814;4.510;2022-08-30T08:21:34;102235.22;;;18.02;83.16
11440;BME280;5776;51.814;4.510;2022-08-30T08:24:01;102233.00;;;18.04;83.34
11440;BME280;5776;51.814;4.510;2022-08-30T08:26:27;102233.81;;;18.04;83.19
11440;BME280;5776;51.814;4.510;2022-08-30T08:28:53;102240.63;;;18.07;82.98
11440;BME280;5776;51.814;4.510;2022-08-30T08:31:25;102230.16;;;18.09;83.04
11440;BME280;5776;51.814;4.510;2022-08-30T08:33:51;102231.16;;;18.13;82.36
11440;BME280;5776;51.814;4.510;2022-08-30T08:36:17;102241.34;;;18.12;82.40
11440;BME280;5776;51.814;4.510;2022-08-30T08:38:43;102240.22;;;18.13;82.29
11440;BME280;5776;51.814;4.510;2022-08-30T08:43:57;102231.38;;;18.17;81.28
11440;BME280;5776;51.814;4.510;2022-08-30T08:46:32;102229.63;;;18.21;80.04
11440;BME280;5776;51.814;4.510;2022-08-30T08:49:03;102232.59;;;18.24;79.90
11440;BME280;5776;51.814;4.510;2022-08-30T08:51:33;102239.13;;;18.28;80.35
11440;BME280;5776;51.814;4.510;2022-08-30T08:54:31;102235.53;;;18.28;80.07
11440;BME280;5776;51.814;4.510;2022-08-30T08:56:59;102237.69;;;18.31;79.38
11440;BME280;5776;51.814;4.510;2022-08-30T08:59:25;102234.59;;;18.32;79.39
11440;BME280;5776;51.814;4.510;2022-08-30T09:01:52;102235.63;;;18.37;79.27
11440;BME280;5776;51.814;4.510;2022-08-30T09:04:25;102224.81;;;18.40;78.91
11440;BME280;5776;51.814;4.510;2022-08-30T09:07:03;102221.78;;;18.42;79.12
11440;BME280;5776;51.814;4.510;2022-08-30T09:09:33;102222.78;;;18.46;78.80
11440;BME280;5776;51.814;4.510;2022-08-30T09:11:59;102226.88;;;18.48;78.61
11440;BME280;5776;51.814;4.510;2022-08-30T09:14:30;102233.47;;;18.47;78.83
11440;BME280;5776;51.814;4.510;2022-08-30T09:22:04;102236.91;;;18.53;78.49
11440;BME280;5776;51.814;4.510;2022-08-30T09:27:40;102246.38;;;18.61;77.56
11440;BME280;5776;51.814;4.510;2022-08-30T09:30:07;102237.22;;;18.65;78.20
11440;BME280;5776;51.814;4.510;2022-08-30T09:32:39;102249.03;;;18.66;78.19
11440;BME280;5776;51.814;4.510;2022-08-30T09:35:11;102238.00;;;18.66;78.28
11440;BME280;5776;51.814;4.510;2022-08-30T09:40:44;102251.88;;;18.74;77.63
11440;BME280;5776;51.814;4.510;2022-08-30T09:45:49;102251.06;;;18.74;78.06
11440;BME280;5776;51.814;4.510;2022-08-30T09:48:41;102243.53;;;18.80;78.00
11440;BME280;5776;51.814;4.510;2022-08-30T10:01:29;102236.34;;;18.92;77.67
11440;BME280;5776;51.814;4.510;2022-08-30T10:04:28;102242.88;;;18.96;77.99
11440;BME280;5776;51.814;4.510;2022-08-30T10:07:07;102239.00;;;18.97;77.59
11440;BME280;5776;51.814;4.510;2022-08-30T10:17:55;102233.88;;;19.05;77.15
11440;BME280;5776;51.814;4.510;2022-08-30T10:23:18;102236.50;;;19.10;75.86
11440;BME280;5776;51.814;4.510;2022-08-30T10:25:54;102232.59;;;19.11;76.32
11440;BME280;5776;51.814;4.510;2022-08-30T10:28:35;102236.50;;;19.10;75.96
11440;BME280;5776;51.814;4.510;2022-08-30T10:31:19;102236.19;;;19.11;75.71
11440;BME280;5776;51.814;4.510;2022-08-30T10:33:52;102239.44;;;19.13;75.25
11440;BME280;5776;51.814;4.510;2022-08-30T10:36:26;102232.47;;;19.16;75.06
11440;BME280;5776;51.814;4.510;2022-08-30T10:38:53;102238.69;;;19.21;74.98
11440;BME280;5776;51.814;4.510;2022-08-30T10:49:14;102236.34;;;19.29;73.57
11440;BME280;5776;51.814;4.510;2022-08-30T10:54:35;102231.38;;;19.39;74.02
11440;BME280;5776;51.814;4.510;2022-08-30T10:57:02;102227.16;;;19.42;73.63
11440;BME280;5776;51.814;4.510;2022-08-30T10:59:29;102233.66;;;19.46;73.24
11440;BME280;5776;51.814;4.510;2022-08-30T11:13:01;102231.97;;;19.59;71.54
11440;BME280;5776;51.814;4.510;2022-08-30T11:15:33;102219.50;;;19.61;70.28
11440;BME280;5776;51.814;4.510;2022-08-30T11:20:45;102232.16;;;19.62;71.00
11440;BME280;5776;51.814;4.510;2022-08-30T11:25:48;102224.78;;;19.72;70.86
11440;BME280;5776;51.814;4.510;2022-08-30T11:31:27;102219.63;;;19.79;70.19
11440;BME280;5776;51.814;4.510;2022-08-30T11:33:56;102217.53;;;19.84;70.00
11440;BME280;5776;51.814;4.510;2022-08-30T11:39:01;102218.34;;;19.85;70.05
11440;BME280;5776;51.814;4.510;2022-08-30T11:41:37;102215.09;;;19.83;69.97
11440;BME280;5776;51.814;4.510;2022-08-30T11:46:49;102213.97;;;19.84;69.85
11440;BME280;5776;51.814;4.510;2022-08-30T11:57:47;102217.28;;;20.03;66.50
11440;BME280;5776;51.814;4.510;2022-08-30T12:00:32;102217.41;;;19.98;65.77
11440;BME280;5776;51.814;4.510;2022-08-30T12:03:04;102204.63;;;20.02;66.13
11440;BME280;5776;51.814;4.510;2022-08-30T12:08:08;102199.63;;;20.04;67.20
11440;BME280;5776;51.814;4.510;2022-08-30T12:10:43;102196.06;;;20.13;66.80
11440;BME280;5776;51.814;4.510;2022-08-30T12:16:22;102193.50;;;20.25;66.46
11440;BME280;5776;51.814;4.510;2022-08-30T12:19:18;102199.19;;;20.28;66.07
11440;BME280;5776;51.814;4.510;2022-08-30T12:21:55;102193.00;;;20.23;67.18
11440;BME280;5776;51.814;4.510;2022-08-30T12:24:31;102197.88;;;20.26;66.87
11440;BME280;5776;51.814;4.510;2022-08-30T12:30:14;102193.84;;;20.32;66.57
11440;BME280;5776;51.814;4.510;2022-08-30T12:32:49;102188.97;;;20.38;66.12
11440;BME280;5776;51.814;4.510;2022-08-30T12:35:27;102203.91;;;20.45;66.14
11440;BME280;5776;51.814;4.510;2022-08-30T12:38:03;102185.75;;;20.44;64.96
11440;BME280;5776;51.814;4.510;2022-08-30T12:40:31;102195.00;;;20.48;65.48
11440;BME280;5776;51.814;4.510;2022-08-30T12:43:02;102196.63;;;20.49;64.79
11440;BME280;5776;51.814;4.510;2022-08-30T12:45:35;102185.09;;;20.47;65.07
11440;BME280;5776;51.814;4.510;2022-08-30T12:48:04;102189.63;;;20.43;65.22
11440;BME280;5776;51.814;4.510;2022-08-30T12:50:52;102184.59;;;20.45;64.96
11440;BME280;5776;51.814;4.510;2022-08-30T12:53:26;102175.50;;;20.54;64.83
11440;BME280;5776;51.814;4.510;2022-08-30T12:58:46;102170.66;;;20.50;64.89
11440;BME280;5776;51.814;4.510;2022-08-30T13:03:54;102172.91;;;20.48;65.09
11440;BME280;5776;51.814;4.510;2022-08-30T13:06:49;102162.06;;;20.52;64.55
11440;BME280;5776;51.814;4.510;2022-08-30T13:09:30;102168.75;;;20.60;65.15
11440;BME280;5776;51.814;4.510;2022-08-30T13:11:57;102175.25;;;20.55;65.36
11440;BME280;5776;51.814;4.510;2022-08-30T13:14:31;102172.31;;;20.60;65.14
11440;BME280;5776;51.814;4.510;2022-08-30T13:17:26;102169.72;;;20.64;64.74
11440;BME280;5776;51.814;4.510;2022-08-30T13:20:20;102168.59;;;20.65;65.39
11440;BME280;5776;51.814;4.510;2022-08-30T13:23:07;102173.94;;;20.61;64.89
11440;BME280;5776;51.814;4.510;2022-08-30T13:25:35;102172.81;;;20.62;64.29
11440;BME280;5776;51.814;4.510;2022-08-30T13:28:04;102167.63;;;20.69;63.75
11440;BME280;5776;51.814;4.510;2022-08-30T13:30:32;102166.66;;;20.74;64.48
11440;BME280;5776;51.814;4.510;2022-08-30T13:32:58;102168.44;;;20.70;64.56
11440;BME280;5776;51.814;4.510;2022-08-30T13:35:28;102171.16;;;20.61;64.07
11440;BME280;5776;51.814;4.510;2022-08-30T13:37:55;102163.88;;;20.57;64.56
11440;BME280;5776;51.814;4.510;2022-08-30T13:40:21;102160.47;;;20.60;64.88
11440;BME280;5776;51.814;4.510;2022-08-30T13:42:48;102169.88;;;20.59;64.03
11440;BME280;5776;51.814;4.510;2022-08-30T13:45:16;102162.25;;;20.56;64.20
11440;BME280;5776;51.814;4.510;2022-08-30T13:47:43;102158.38;;;20.57;64.36
11440;BME280;5776;51.814;4.510;2022-08-30T13:50:11;102161.13;;;20.57;65.19
11440;BME280;5776;51.814;4.510;2022-08-30T13:52:37;102156.06;;;20.59;65.15
11440;BME280;5776;51.814;4.510;2022-08-30T13:55:04;102147.78;;;20.59;65.02
11440;BME280;5776;51.814;4.510;2022-08-30T13:57:31;102152.50;;;20.58;64.79
11440;BME280;5776;51.814;4.510;2022-08-30T13:59:57;102146.66;;;20.60;64.59
11440;BME280;5776;51.814;4.510;2022-08-30T14:02:23;102152.50;;;20.58;65.42
11440;BME280;5776;51.814;4.510;2022-08-30T14:04:50;102150.53;;;20.59;65.11
11440;BME280;5776;51.814;4.510;2022-08-30T14:07:16;102150.53;;;20.59;64.58
11440;BME280;5776;51.814;4.510;2022-08-30T14:09:42;102151.38;;;20.59;65.48
11440;BME280;5776;51.814;4.510;2022-08-30T14:12:08;102148.13;;;20.57;65.33
11440;BME280;5776;51.814;4.510;2022-08-30T14:14:35;102146.19;;;20.58;64.86
11440;BME280;5776;51.814;4.510;2022-08-30T14:17:01;102153.31;;;20.59;64.64
11440;BME280;5776;51.814;4.510;2022-08-30T14:19:26;102146.66;;;20.60;64.80
11440;BME280;5776;51.814;4.510;2022-08-30T14:21:52;102145.22;;;20.62;64.51
11440;BME280;5776;51.814;4.510;2022-08-30T14:24:18;102160.81;;;20.67;63.74
11440;BME280;5776;51.814;4.510;2022-08-30T14:26:46;102151.38;;;20.68;64.84
11440;BME280;5776;51.814;4.510;2022-08-30T14:29:16;102146.16;;;20.66;64.72
11440;BME280;5776;51.814;4.510;2022-08-30T14:31:42;102154.13;;;20.68;65.20
11440;BME280;5776;51.814;4.510;2022-08-30T14:34:10;102160.47;;;20.68;65.39
11440;BME280;5776;51.814;4.510;2022-08-30T14:36:38;102156.88;;;20.68;65.05
11440;BME280;5776;51.814;4.510;2022-08-30T14:39:06;102162.09;;;20.69;66.16
11440;BME280;5776;51.814;4.510;2022-08-30T14:41:32;102157.88;;;20.72;66.47
11440;BME280;5776;51.814;4.510;2022-08-30T14:43:58;102155.25;;;20.76;65.64